Terminal Aerodrome Forecast
Issued by NWS Charleston, WV

Home | Current Version | Previous Version | Text Only | Print | Product List | Glossary On
Versions: 1 2 3 4 5 6 7 8 9 10 11 12 13 14 15 16 17 18 19 20 21 22 23
000
FTUS41 KRLX 242300
TAFPKB
TAF
KPKB 242340Z 2500/2524 VRB03KT P6SM BKN140
     FM251000 15007KT P6SM BKN120
     FM251200 15008KT 5SM -SHRA BKN060
     FM251500 19007KT 3SM -SHRA VCTS OVC025CB
     FM251900 21009G14KT 6SM -SHRA VCTS BKN025CB
     FM252000 23009G14KT P6SM BKN025
     FM252300 28010G15KT P6SM SCT035=

USA.gov is the U.S. government's official web portal to all federal, state and local government web resources and services.